createdAt,value
2023-02-16T00:00:26.911Z,4.57
2023-02-16T00:02:53.240Z,4.66
2023-02-16T00:05:19.537Z,4.60
2023-02-16T00:07:45.827Z,4.42
2023-02-16T00:10:12.142Z,4.52
2023-02-16T00:12:38.433Z,4.49
2023-02-16T00:15:04.726Z,4.54
2023-02-16T00:17:31.038Z,4.45
2023-02-16T00:19:57.329Z,4.15
2023-02-16T00:22:23.618Z,4.51
2023-02-16T00:24:49.917Z,4.60
2023-02-16T00:27:16.213Z,4.37
2023-02-16T00:29:45.947Z,4.20
2023-02-16T00:32:12.528Z,4.34
2023-02-16T00:34:38.891Z,4.38
2023-02-16T00:37:05.178Z,4.43
2023-02-16T00:39:31.491Z,4.38
2023-02-16T00:41:57.788Z,4.56
2023-02-16T00:44:24.079Z,4.65
2023-02-16T00:46:50.449Z,4.57
2023-02-16T00:49:16.741Z,4.27
2023-02-16T00:51:43.057Z,4.09
2023-02-16T00:54:09.370Z,4.15
2023-02-16T00:56:35.661Z,4.09
2023-02-16T00:59:01.972Z,4.11
2023-02-16T01:01:31.073Z,4.36
2023-02-16T01:03:57.411Z,4.43
2023-02-16T01:06:23.727Z,4.66
2023-02-16T01:08:50.049Z,4.80
2023-02-16T01:11:16.336Z,4.77
2023-02-16T01:13:42.636Z,4.62
2023-02-16T01:16:08.980Z,4.24
2023-02-16T01:18:35.284Z,4.35
2023-02-16T01:21:01.691Z,4.36
2023-02-16T01:23:28.109Z,4.30
2023-02-16T01:25:54.390Z,4.16
2023-02-16T01:28:20.673Z,4.14
2023-02-16T01:30:47.037Z,3.72
2023-02-16T01:33:13.376Z,3.67
2023-02-16T01:35:39.658Z,4.12
2023-02-16T01:38:06.005Z,4.19
2023-02-16T01:40:32.314Z,4.38
2023-02-16T01:42:58.601Z,4.52
2023-02-16T01:45:24.927Z,4.41
2023-02-16T01:47:51.215Z,4.41
2023-02-16T01:50:17.516Z,4.28
2023-02-16T01:52:43.861Z,4.10
2023-02-16T01:55:10.163Z,4.11
2023-02-16T01:57:36.450Z,4.06
2023-02-16T02:00:02.764Z,4.26
2023-02-16T02:02:29.111Z,4.01
2023-02-16T02:04:55.446Z,4.00
2023-02-16T02:07:21.779Z,4.05
2023-02-16T02:09:48.077Z,4.10
2023-02-16T02:12:14.412Z,3.93
2023-02-16T02:14:40.727Z,3.89
2023-02-16T02:17:07.027Z,3.79
2023-02-16T02:19:33.334Z,3.78
2023-02-16T02:21:59.642Z,3.71
2023-02-16T02:24:25.936Z,3.77
2023-02-16T02:26:52.221Z,3.92
2023-02-16T02:29:18.516Z,3.63
2023-02-16T02:31:44.961Z,3.76
2023-02-16T02:34:11.275Z,3.73
2023-02-16T02:36:37.579Z,3.69
2023-02-16T02:39:03.889Z,3.75
2023-02-16T02:41:30.172Z,3.97
2023-02-16T02:43:56.495Z,3.26
2023-02-16T02:46:22.792Z,3.75
2023-02-16T02:48:49.122Z,3.27
2023-02-16T02:51:15.448Z,3.26
2023-02-16T02:53:41.751Z,3.49
2023-02-16T02:56:08.049Z,3.47
2023-02-16T02:58:34.412Z,3.41
2023-02-16T03:01:00.744Z,3.63
2023-02-16T03:03:27.062Z,3.41
2023-02-16T03:05:53.371Z,3.54
2023-02-16T03:08:19.656Z,3.81
2023-02-16T03:10:45.941Z,3.69
2023-02-16T03:13:12.250Z,3.74
2023-02-16T03:15:38.547Z,3.83
2023-02-16T03:18:04.839Z,3.86
2023-02-16T03:20:31.160Z,3.81
2023-02-16T03:22:57.456Z,3.66
2023-02-16T03:25:23.738Z,3.51
2023-02-16T03:27:50.061Z,3.55
2023-02-16T03:30:16.537Z,3.56
2023-02-16T03:32:43.052Z,3.63
2023-02-16T03:35:09.395Z,3.55
2023-02-16T03:37:36.944Z,3.38
2023-02-16T03:40:03.246Z,3.44
2023-02-16T03:42:29.544Z,3.49
2023-02-16T03:44:55.847Z,3.45
2023-02-16T03:47:22.133Z,3.23
2023-02-16T03:49:48.445Z,3.28
2023-02-16T03:52:14.746Z,2.94
2023-02-16T03:54:41.031Z,3.27
2023-02-16T03:57:07.348Z,3.22
2023-02-16T03:59:33.629Z,3.15
2023-02-16T04:01:59.967Z,3.22
2023-02-16T04:04:26.517Z,2.95
2023-02-16T04:06:52.876Z,3.22
2023-02-16T04:09:19.172Z,3.56
2023-02-16T04:11:45.488Z,3.51
2023-02-16T04:14:11.787Z,3.46
2023-02-16T04:16:38.111Z,3.32
2023-02-16T04:19:04.430Z,3.56
2023-02-16T04:21:30.713Z,3.37
2023-02-16T04:23:57.000Z,3.42
2023-02-16T04:26:23.323Z,3.21
2023-02-16T04:28:49.615Z,3.46
2023-02-16T04:31:15.985Z,3.27
2023-02-16T04:33:42.341Z,3.30
2023-02-16T04:36:08.637Z,3.20
2023-02-16T04:38:34.929Z,3.28
2023-02-16T04:41:01.474Z,3.40
2023-02-16T04:43:27.868Z,3.22
2023-02-16T04:45:54.339Z,3.40
2023-02-16T04:48:20.722Z,3.40
2023-02-16T04:50:47.014Z,3.54
2023-02-16T04:53:13.303Z,3.59
2023-02-16T04:55:39.624Z,3.43
2023-02-16T04:58:05.923Z,3.53
2023-02-16T05:00:32.802Z,3.65
2023-02-16T05:02:59.952Z,3.51
2023-02-16T05:05:26.254Z,3.64
2023-02-16T05:07:52.550Z,3.79
2023-02-16T05:10:18.901Z,3.23
2023-02-16T05:12:45.212Z,3.43
2023-02-16T05:15:11.497Z,3.44
2023-02-16T05:17:37.827Z,3.63
2023-02-16T05:20:04.131Z,3.60
2023-02-16T05:22:30.431Z,3.78
2023-02-16T05:24:56.747Z,3.60
2023-02-16T05:27:23.041Z,3.52
2023-02-16T05:29:49.322Z,3.49
2023-02-16T05:32:15.700Z,3.63
2023-02-16T05:34:42.036Z,3.57
2023-02-16T05:37:08.340Z,3.70
2023-02-16T05:39:34.648Z,3.66
2023-02-16T05:42:00.932Z,3.72
2023-02-16T05:44:27.218Z,3.51
2023-02-16T05:46:53.531Z,3.60
2023-02-16T05:49:19.807Z,3.45
2023-02-16T05:51:46.136Z,3.16
2023-02-16T05:54:12.457Z,3.35
2023-02-16T05:56:38.749Z,3.08
2023-02-16T05:59:05.041Z,3.43
2023-02-16T06:01:31.369Z,3.29
2023-02-16T06:03:57.735Z,3.28
2023-02-16T06:06:24.114Z,3.44
2023-02-16T06:08:50.433Z,3.12
2023-02-16T06:11:16.721Z,3.22
2023-02-16T06:13:43.021Z,3.17
2023-02-16T06:16:09.402Z,3.25
2023-02-16T06:18:35.727Z,3.25
2023-02-16T06:21:02.266Z,3.25
2023-02-16T06:23:28.714Z,3.25
2023-02-16T06:25:55.006Z,3.34
2023-02-16T06:28:21.287Z,3.51
2023-02-16T06:30:47.591Z,3.53
2023-02-16T06:33:13.900Z,3.16
2023-02-16T06:35:40.210Z,3.20
2023-02-16T06:38:06.518Z,3.28
2023-02-16T06:40:32.805Z,2.90
2023-02-16T06:42:59.094Z,2.76
2023-02-16T06:45:25.410Z,2.70
2023-02-16T06:47:51.698Z,2.82
2023-02-16T06:50:17.996Z,2.78
2023-02-16T06:52:44.337Z,2.92
2023-02-16T06:55:10.628Z,3.06
2023-02-16T06:57:36.932Z,3.13
2023-02-16T07:00:03.403Z,2.86
2023-02-16T07:02:29.696Z,2.97
2023-02-16T07:04:56.033Z,3.06
2023-02-16T07:07:22.397Z,3.26
2023-02-16T07:09:48.679Z,3.37
2023-02-16T07:12:14.966Z,3.46
2023-02-16T07:14:43.121Z,3.48
2023-02-16T07:17:10.340Z,3.22
2023-02-16T07:19:36.641Z,2.90
2023-02-16T07:22:02.994Z,3.22
2023-02-16T07:24:29.278Z,3.56
2023-02-16T07:26:55.573Z,3.44
2023-02-16T07:29:21.876Z,3.41
2023-02-16T07:31:48.284Z,3.42
2023-02-16T07:34:14.837Z,3.32
2023-02-16T07:36:41.141Z,3.32
2023-02-16T07:39:07.430Z,3.53
2023-02-16T07:41:33.713Z,3.29
2023-02-16T07:44:00.016Z,2.92
2023-02-16T07:46:26.315Z,2.67
2023-02-16T07:48:52.605Z,3.00
2023-02-16T07:51:18.914Z,3.43
2023-02-16T07:53:45.209Z,3.42
2023-02-16T07:56:11.501Z,3.14
2023-02-16T07:58:37.822Z,3.11
2023-02-16T08:01:04.300Z,3.34
2023-02-16T08:03:30.809Z,3.35
2023-02-16T08:05:57.120Z,3.62
2023-02-16T08:08:23.396Z,3.53
2023-02-16T08:10:49.702Z,3.73
2023-02-16T08:13:16.028Z,3.89
2023-02-16T08:15:42.329Z,3.79
2023-02-16T08:18:08.615Z,3.77
2023-02-16T08:20:53.926Z,3.66
2023-02-16T08:23:21.182Z,3.38
2023-02-16T08:25:47.523Z,3.93
2023-02-16T08:28:13.820Z,4.08
2023-02-16T08:30:40.107Z,3.91
2023-02-16T08:33:06.412Z,3.99
2023-02-16T08:35:32.726Z,3.96
2023-02-16T08:37:59.012Z,4.26
2023-02-16T08:40:25.326Z,4.04
2023-02-16T08:42:51.622Z,3.19
2023-02-16T08:45:17.915Z,3.45
2023-02-16T08:47:44.208Z,2.92
2023-02-16T08:50:10.503Z,3.29
2023-02-16T08:52:36.793Z,3.20
2023-02-16T08:55:03.105Z,3.32
2023-02-16T08:57:29.406Z,3.64
2023-02-16T08:59:55.713Z,3.55
2023-02-16T09:02:22.063Z,3.71
2023-02-16T09:04:48.887Z,4.04
2023-02-16T09:07:15.264Z,4.04
2023-02-16T09:09:42.774Z,3.82
2023-02-16T09:12:09.125Z,3.88
2023-02-16T09:14:35.422Z,4.01
2023-02-16T09:17:01.762Z,4.55
2023-02-16T09:19:28.098Z,4.72
2023-02-16T09:21:54.416Z,3.79
2023-02-16T09:24:20.723Z,4.07
2023-02-16T09:26:47.055Z,3.58
2023-02-16T09:29:13.542Z,4.32
2023-02-16T09:31:40.046Z,4.01
2023-02-16T09:34:06.382Z,4.17
2023-02-16T09:36:32.709Z,4.29
2023-02-16T09:38:59.028Z,4.55
2023-02-16T09:41:25.311Z,4.52
2023-02-16T09:43:51.597Z,4.51
2023-02-16T09:46:18.661Z,4.15
2023-02-16T09:48:45.829Z,4.90
2023-02-16T09:51:12.132Z,4.83
2023-02-16T09:53:38.441Z,4.63
2023-02-16T09:56:05.146Z,5.00
2023-02-16T09:58:31.587Z,5.08
2023-02-16T10:00:57.902Z,4.69
2023-02-16T10:03:24.188Z,4.94
2023-02-16T10:05:50.671Z,4.56
2023-02-16T10:08:17.087Z,4.86
2023-02-16T10:10:43.374Z,5.75
2023-02-16T10:13:09.671Z,5.69
2023-02-16T10:15:36.045Z,5.66
2023-02-16T10:18:02.407Z,5.64
2023-02-16T10:20:28.686Z,5.08
2023-02-16T10:22:54.997Z,5.45
2023-02-16T10:25:21.273Z,5.79
2023-02-16T10:27:47.566Z,5.92
2023-02-16T10:30:13.917Z,6.75
2023-02-16T10:32:43.955Z,6.43
2023-02-16T10:35:10.543Z,6.23
2023-02-16T10:37:36.910Z,6.07
2023-02-16T10:40:03.214Z,6.67
2023-02-16T10:42:29.492Z,6.88
2023-02-16T10:44:55.787Z,7.26
2023-02-16T10:47:22.299Z,7.46
2023-02-16T10:49:48.697Z,7.68
2023-02-16T10:52:15.006Z,7.38
2023-02-16T10:54:41.302Z,7.40
2023-02-16T10:57:07.610Z,7.93
2023-02-16T10:59:33.955Z,7.98
2023-02-16T11:02:00.251Z,7.56
2023-02-16T11:04:26.592Z,7.41
2023-02-16T11:06:52.925Z,7.73
2023-02-16T11:09:19.213Z,7.28
2023-02-16T11:11:45.508Z,7.32
2023-02-16T11:14:11.830Z,8.35
2023-02-16T11:16:38.126Z,8.34
2023-02-16T11:19:04.420Z,8.49
2023-02-16T11:21:30.738Z,8.95
2023-02-16T11:23:57.022Z,8.25
2023-02-16T11:26:23.329Z,8.42
2023-02-16T11:28:49.635Z,9.44
2023-02-16T11:31:16.017Z,9.48
2023-02-16T11:33:42.395Z,9.46
2023-02-16T11:36:08.702Z,9.42
2023-02-16T11:38:35.074Z,8.59
2023-02-16T11:41:01.371Z,8.74
2023-02-16T11:43:27.744Z,9.01
2023-02-16T11:45:54.031Z,8.92
2023-02-16T11:48:20.312Z,9.08
2023-02-16T11:50:46.637Z,9.19
2023-02-16T11:53:12.946Z,8.64
2023-02-16T11:55:39.266Z,8.84
2023-02-16T11:58:05.666Z,9.45
2023-02-16T12:00:31.973Z,9.54
2023-02-16T12:02:58.267Z,8.36
2023-02-16T12:05:24.617Z,8.89
2023-02-16T12:07:50.965Z,9.64
2023-02-16T12:10:17.272Z,9.56
2023-02-16T12:12:43.581Z,10.27
2023-02-16T12:15:09.873Z,9.41
2023-02-16T12:17:36.168Z,9.95
2023-02-16T12:20:02.498Z,10.05
2023-02-16T12:22:28.805Z,9.67
2023-02-16T12:24:55.085Z,9.22
2023-02-16T12:27:21.401Z,9.51
2023-02-16T12:29:47.688Z,9.78
2023-02-16T12:32:14.010Z,9.52
2023-02-16T12:34:40.327Z,10.06
2023-02-16T12:37:06.628Z,9.85
2023-02-16T12:39:32.943Z,9.54
2023-02-16T12:41:59.272Z,10.16
2023-02-16T12:44:25.566Z,9.79
2023-02-16T12:46:51.868Z,9.88
2023-02-16T12:49:18.217Z,9.88
2023-02-16T12:51:44.516Z,10.23
2023-02-16T12:54:10.860Z,10.13
2023-02-16T12:56:37.195Z,9.61
2023-02-16T12:59:03.500Z,10.29
2023-02-16T13:01:29.866Z,9.73
2023-02-16T13:03:56.207Z,9.52
2023-02-16T13:06:22.525Z,10.34
2023-02-16T13:08:48.828Z,9.33
2023-02-16T13:11:15.165Z,9.18
2023-02-16T13:13:41.481Z,9.62
2023-02-16T13:16:14.920Z,9.88
2023-02-16T13:18:50.287Z,9.81
2023-02-16T13:21:16.581Z,9.91
2023-02-16T13:23:42.874Z,9.79
2023-02-16T13:26:09.618Z,9.76
2023-02-16T13:28:36.293Z,10.23
2023-02-16T13:31:02.705Z,10.09
2023-02-16T13:33:29.104Z,9.85
2023-02-16T13:35:55.401Z,9.49
2023-02-16T13:38:21.709Z,9.65
2023-02-16T13:40:48.031Z,9.69
2023-02-16T13:43:14.358Z,9.96
2023-02-16T13:45:40.733Z,9.59
2023-02-16T13:48:07.233Z,9.65
2023-02-16T13:50:33.540Z,9.56
2023-02-16T13:52:59.823Z,9.12
2023-02-16T13:55:26.195Z,9.61
2023-02-16T13:57:53.991Z,9.69
2023-02-16T14:00:20.887Z,10.22
2023-02-16T14:02:47.197Z,9.59
2023-02-16T14:05:13.495Z,9.97
2023-02-16T14:07:39.795Z,10.52
2023-02-16T14:10:06.135Z,10.16
2023-02-16T14:12:32.433Z,10.43
2023-02-16T14:14:58.731Z,9.98
2023-02-16T14:17:25.051Z,10.11
2023-02-16T14:19:51.351Z,10.29
2023-02-16T14:22:17.669Z,10.45
2023-02-16T14:24:43.992Z,9.93
2023-02-16T14:27:10.291Z,10.02
2023-02-16T14:29:36.573Z,10.07
2023-02-16T14:32:02.908Z,10.10
2023-02-16T14:34:29.223Z,10.34
2023-02-16T14:36:55.514Z,10.61
2023-02-16T14:39:22.821Z,10.83
2023-02-16T14:41:49.225Z,10.51
2023-02-16T14:44:15.533Z,10.45
2023-02-16T14:46:41.900Z,10.42
2023-02-16T14:49:08.198Z,10.50
2023-02-16T14:51:34.486Z,10.42
2023-02-16T14:54:00.797Z,10.51
2023-02-16T14:56:27.464Z,10.25
2023-02-16T14:58:53.758Z,10.50
2023-02-16T15:01:20.103Z,10.59
2023-02-16T15:03:46.444Z,10.41
2023-02-16T15:06:12.802Z,10.74
2023-02-16T15:08:39.130Z,10.91
2023-02-16T15:11:05.430Z,11.10
2023-02-16T15:13:31.731Z,10.71
2023-02-16T15:15:58.085Z,10.77
2023-02-16T15:18:24.400Z,11.31
2023-02-16T15:20:50.716Z,11.21
2023-02-16T15:23:17.034Z,11.27
2023-02-16T15:25:43.345Z,11.45
2023-02-16T15:28:09.687Z,11.16
2023-02-16T15:30:35.995Z,11.06
2023-02-16T15:33:02.499Z,11.21
2023-02-16T15:35:28.806Z,11.36
2023-02-16T15:37:55.125Z,11.28
2023-02-16T15:40:26.233Z,11.54
2023-02-16T15:42:52.878Z,11.48
2023-02-16T15:45:19.261Z,11.47
2023-02-16T15:47:46.279Z,11.47
2023-02-16T15:50:12.604Z,11.44
2023-02-16T15:52:38.920Z,11.36
2023-02-16T15:55:05.210Z,11.46
2023-02-16T15:57:31.516Z,11.40
2023-02-16T15:59:57.831Z,11.42
2023-02-16T16:02:24.128Z,11.37
2023-02-16T16:04:50.442Z,10.97
2023-02-16T16:07:16.788Z,11.26
2023-02-16T16:09:43.104Z,10.63
2023-02-16T16:12:09.398Z,10.77
2023-02-16T16:14:35.718Z,10.75
2023-02-16T16:17:02.024Z,10.86
2023-02-16T16:19:28.320Z,10.88
2023-02-16T16:21:54.659Z,11.01
2023-02-16T16:24:20.952Z,10.93
2023-02-16T16:26:47.255Z,11.05
2023-02-16T16:29:13.567Z,11.20
2023-02-16T16:31:39.958Z,11.25
2023-02-16T16:34:06.331Z,11.37
2023-02-16T16:36:32.651Z,11.37
2023-02-16T16:38:58.957Z,11.23
2023-02-16T16:41:25.259Z,11.16
2023-02-16T16:43:51.750Z,11.30
2023-02-16T16:46:18.079Z,11.22
2023-02-16T16:48:44.362Z,11.15
2023-02-16T16:51:10.681Z,11.17
2023-02-16T16:53:36.978Z,11.29
2023-02-16T16:56:03.749Z,11.32
2023-02-16T16:58:30.214Z,11.01
2023-02-16T17:00:56.517Z,10.88
2023-02-16T17:03:22.801Z,10.84
2023-02-16T17:05:49.220Z,10.73
2023-02-16T17:08:15.524Z,10.75
2023-02-16T17:10:41.836Z,10.41
2023-02-16T17:13:08.186Z,10.55
2023-02-16T17:15:34.467Z,10.84
2023-02-16T17:18:00.755Z,10.59
2023-02-16T17:20:27.070Z,10.47
2023-02-16T17:22:53.366Z,10.74
2023-02-16T17:25:19.764Z,10.74
2023-02-16T17:27:46.082Z,10.70
2023-02-16T17:30:12.440Z,11.04
2023-02-16T17:32:38.779Z,10.67
2023-02-16T17:35:05.119Z,10.48
2023-02-16T17:37:31.415Z,10.55
2023-02-16T17:39:57.718Z,10.32
2023-02-16T17:42:24.041Z,10.25
2023-02-16T17:44:50.463Z,10.16
2023-02-16T17:47:16.765Z,10.41
2023-02-16T17:49:43.078Z,10.41
2023-02-16T17:52:09.350Z,10.37
2023-02-16T17:54:35.635Z,10.29
2023-02-16T17:57:01.943Z,10.25
2023-02-16T17:59:29.957Z,10.37
2023-02-16T18:01:56.731Z,10.05
2023-02-16T18:04:23.106Z,10.43
2023-02-16T18:06:49.483Z,10.73
2023-02-16T18:09:15.783Z,10.62
2023-02-16T18:11:42.090Z,10.59
2023-02-16T18:14:08.376Z,10.64
2023-02-16T18:16:34.686Z,10.62
2023-02-16T18:19:01.048Z,10.54
2023-02-16T18:21:27.336Z,10.55
2023-02-16T18:23:53.630Z,10.52
2023-02-16T18:26:20.073Z,10.56
2023-02-16T18:28:46.392Z,10.51
2023-02-16T18:31:12.738Z,10.49
2023-02-16T18:33:39.084Z,10.43
2023-02-16T18:36:05.663Z,10.54
2023-02-16T18:38:32.304Z,10.43
2023-02-16T18:40:58.621Z,10.28
2023-02-16T18:43:24.935Z,10.34
2023-02-16T18:45:51.223Z,10.42
2023-02-16T18:48:17.596Z,10.44
2023-02-16T18:50:43.905Z,10.18
2023-02-16T18:53:10.210Z,10.60
2023-02-16T18:55:36.524Z,10.53
2023-02-16T18:58:02.819Z,10.34
2023-02-16T19:00:29.101Z,10.07
2023-02-16T19:02:55.414Z,9.27
2023-02-16T19:05:21.702Z,9.65
2023-02-16T19:07:47.998Z,9.92
2023-02-16T19:10:14.309Z,9.83
2023-02-16T19:12:40.608Z,10.05
2023-02-16T19:15:06.911Z,9.58
2023-02-16T19:17:33.236Z,9.94
2023-02-16T19:19:59.542Z,9.80
2023-02-16T19:22:25.832Z,10.00
2023-02-16T19:24:52.186Z,10.15
2023-02-16T19:27:18.487Z,10.26
2023-02-16T19:29:44.774Z,10.38
2023-02-16T19:32:11.105Z,10.58
2023-02-16T19:34:37.450Z,10.46
2023-02-16T19:37:03.744Z,10.29
2023-02-16T19:39:30.061Z,10.35
2023-02-16T19:41:56.344Z,10.43
2023-02-16T19:44:22.622Z,10.40
2023-02-16T19:46:48.936Z,10.07
2023-02-16T19:49:15.238Z,10.32
2023-02-16T19:51:41.533Z,10.36
2023-02-16T19:54:07.829Z,10.45
2023-02-16T19:56:34.106Z,10.45
2023-02-16T19:59:00.393Z,10.26
2023-02-16T20:01:26.728Z,10.38
2023-02-16T20:03:53.042Z,10.38
2023-02-16T20:06:19.334Z,10.34
2023-02-16T20:08:45.649Z,10.30
2023-02-16T20:11:11.955Z,10.57
2023-02-16T20:13:38.244Z,10.42
2023-02-16T20:16:04.942Z,10.24
2023-02-16T20:18:31.444Z,10.31
2023-02-16T20:20:57.735Z,10.28
2023-02-16T20:23:24.051Z,10.35
2023-02-16T20:25:50.343Z,10.28
2023-02-16T20:28:16.697Z,9.99
2023-02-16T20:30:43.050Z,9.70
2023-02-16T20:33:09.330Z,9.67
2023-02-16T20:35:35.616Z,9.57
2023-02-16T20:38:01.916Z,9.84
2023-02-16T20:40:28.202Z,9.88
2023-02-16T20:42:54.490Z,9.53
2023-02-16T20:45:20.807Z,9.58
2023-02-16T20:47:47.090Z,9.61
2023-02-16T20:50:13.380Z,9.76
2023-02-16T20:52:39.681Z,9.73
2023-02-16T20:55:05.981Z,10.02
2023-02-16T20:57:32.286Z,9.80
2023-02-16T20:59:58.604Z,9.83
2023-02-16T21:02:24.943Z,9.77
2023-02-16T21:04:51.272Z,9.66
2023-02-16T21:07:17.568Z,9.59
2023-02-16T21:09:43.867Z,9.64
2023-02-16T21:12:10.170Z,9.64
2023-02-16T21:14:36.472Z,9.68
2023-02-16T21:17:02.770Z,9.64
2023-02-16T21:19:29.062Z,9.70
2023-02-16T21:21:55.388Z,9.76
2023-02-16T21:24:21.694Z,9.71
2023-02-16T21:26:47.992Z,9.83
2023-02-16T21:29:14.320Z,9.62
2023-02-16T21:31:40.674Z,9.68
2023-02-16T21:34:06.989Z,9.89
2023-02-16T21:36:33.352Z,9.90
2023-02-16T21:38:59.641Z,9.87
2023-02-16T21:41:26.012Z,9.83
2023-02-16T21:43:52.366Z,9.63
2023-02-16T21:46:18.652Z,9.96
2023-02-16T21:48:44.942Z,9.99
2023-02-16T21:51:11.249Z,9.98
2023-02-16T21:53:37.539Z,10.00
2023-02-16T21:56:05.442Z,9.90
2023-02-16T21:58:31.931Z,9.88
2023-02-16T22:00:58.245Z,9.95
2023-02-16T22:03:24.718Z,10.01
2023-02-16T22:05:51.010Z,9.95
2023-02-16T22:08:17.331Z,9.97
2023-02-16T22:10:43.627Z,9.86
2023-02-16T22:13:09.930Z,9.67
2023-02-16T22:15:36.215Z,9.77
2023-02-16T22:18:02.502Z,9.62
2023-02-16T22:20:28.818Z,9.76
2023-02-16T22:22:55.108Z,9.60
2023-02-16T22:25:21.426Z,9.54
2023-02-16T22:27:47.743Z,9.56
2023-02-16T22:30:14.077Z,9.65
2023-02-16T22:32:40.385Z,9.88
2023-02-16T22:35:06.698Z,9.91
2023-02-16T22:37:32.990Z,9.53
2023-02-16T22:39:59.283Z,9.70
2023-02-16T22:42:25.638Z,9.66
2023-02-16T22:44:51.943Z,9.78
2023-02-16T22:47:18.238Z,9.79
2023-02-16T22:49:44.560Z,9.77
2023-02-16T22:52:10.861Z,9.45
2023-02-16T22:54:37.145Z,9.44
2023-02-16T22:57:03.472Z,9.55
2023-02-16T22:59:29.761Z,9.82
2023-02-16T23:01:56.037Z,9.89
2023-02-16T23:04:22.363Z,9.89
2023-02-16T23:06:48.655Z,9.71
2023-02-16T23:09:14.950Z,9.75
2023-02-16T23:11:41.260Z,9.82
2023-02-16T23:14:07.550Z,9.91
2023-02-16T23:16:33.859Z,9.91
2023-02-16T23:19:00.239Z,10.09
2023-02-16T23:21:26.570Z,10.08
2023-02-16T23:23:52.908Z,10.05
2023-02-16T23:26:19.245Z,10.18
2023-02-16T23:28:45.554Z,10.08
2023-02-16T23:31:11.957Z,10.28
2023-02-16T23:33:38.318Z,10.13
2023-02-16T23:36:04.846Z,10.19
2023-02-16T23:38:31.421Z,9.90
2023-02-16T23:40:57.738Z,10.09
2023-02-16T23:43:24.040Z,9.83
2023-02-16T23:45:50.344Z,9.88
2023-02-16T23:48:16.738Z,9.81
2023-02-16T23:50:43.030Z,9.85
2023-02-16T23:53:09.319Z,10.05
2023-02-16T23:55:35.636Z,9.84
2023-02-16T23:58:01.927Z,9.72
